createdAt,value
2023-01-29T00:00:50.965Z,73.71
2023-01-29T00:01:54.094Z,73.72
2023-01-29T00:02:57.173Z,74.01
2023-01-29T00:03:59.833Z,74.04
2023-01-29T00:05:16.665Z,74.02
2023-01-29T00:06:25.961Z,74.36
2023-01-29T00:07:28.678Z,74.26
2023-01-29T00:08:31.865Z,73.86
2023-01-29T00:09:36.256Z,73.77
2023-01-29T00:10:38.933Z,73.72
2023-01-29T00:11:43.792Z,73.73
2023-01-29T00:12:47.512Z,73.85
2023-01-29T00:13:55.738Z,73.78
2023-01-29T00:14:58.386Z,73.88
2023-01-29T00:16:01.768Z,73.87
2023-01-29T00:17:05.712Z,73.67
2023-01-29T00:18:09.105Z,73.68
2023-01-29T00:19:11.938Z,73.65
2023-01-29T00:20:15.283Z,73.62
2023-01-29T00:21:20.950Z,73.64
2023-01-29T00:22:23.629Z,73.74
2023-01-29T00:23:26.385Z,73.62
2023-01-29T00:24:29.162Z,73.61
2023-01-29T00:25:32.756Z,73.54
2023-01-29T00:26:36.484Z,73.41
2023-01-29T00:27:39.107Z,73.40
2023-01-29T00:28:41.951Z,73.28
2023-01-29T00:29:45.255Z,73.19
2023-01-29T00:30:48.085Z,73.18
2023-01-29T00:31:50.885Z,73.08
2023-01-29T00:32:55.295Z,73.02
2023-01-29T00:33:58.864Z,73.25
2023-01-29T00:35:02.186Z,73.25
2023-01-29T00:36:09.924Z,73.12
2023-01-29T00:37:13.793Z,73.14
2023-01-29T00:38:18.911Z,72.90
2023-01-29T00:39:31.363Z,72.97
2023-01-29T00:40:59.061Z,72.95
2023-01-29T00:42:20.220Z,73.03
2023-01-29T00:43:41.363Z,73.25
2023-01-29T00:45:00.451Z,73.25
2023-01-29T00:46:05.696Z,73.24
2023-01-29T00:47:27.095Z,73.01
2023-01-29T00:48:29.734Z,73.06
2023-01-29T00:49:34.896Z,73.14
2023-01-29T00:50:37.602Z,73.16
2023-01-29T00:51:41.058Z,73.21
2023-01-29T00:52:43.796Z,73.14
2023-01-29T00:53:47.286Z,73.18
2023-01-29T00:54:50.186Z,73.20
2023-01-29T00:55:52.889Z,73.15
2023-01-29T00:56:55.543Z,73.31
2023-01-29T00:57:58.221Z,73.51
2023-01-29T00:59:01.065Z,73.30
2023-01-29T01:00:13.308Z,73.26
2023-01-29T01:01:24.852Z,73.39
2023-01-29T01:02:46.026Z,73.26
2023-01-29T01:03:50.802Z,73.59
2023-01-29T01:04:55.728Z,73.63
2023-01-29T01:06:08.961Z,73.67
2023-01-29T01:08:31.327Z,73.92
2023-01-29T01:09:54.992Z,73.63
2023-01-29T01:11:09.349Z,73.70
2023-01-29T01:12:12.025Z,73.62
2023-01-29T01:13:16.386Z,73.41
2023-01-29T01:14:20.346Z,73.44
2023-01-29T01:15:25.276Z,73.13
2023-01-29T01:16:28.373Z,73.40
2023-01-29T01:17:31.396Z,73.48
2023-01-29T01:18:34.179Z,73.53
2023-01-29T01:19:37.051Z,73.39
2023-01-29T01:20:40.454Z,73.35
2023-01-29T01:21:46.532Z,73.36
2023-01-29T01:22:49.299Z,73.28
2023-01-29T01:23:53.431Z,73.36
2023-01-29T01:24:56.100Z,73.23
2023-01-29T01:25:58.983Z,73.17
2023-01-29T01:27:02.692Z,73.12
2023-01-29T01:28:06.196Z,73.28
2023-01-29T01:29:08.935Z,73.39
2023-01-29T01:30:17.136Z,73.07
2023-01-29T01:31:20.615Z,73.12
2023-01-29T01:32:23.406Z,73.27
2023-01-29T01:33:26.072Z,73.34
2023-01-29T01:34:29.243Z,73.20
2023-01-29T01:35:32.060Z,73.33
2023-01-29T01:36:34.675Z,73.27
2023-01-29T01:37:40.603Z,73.17
2023-01-29T01:38:48.188Z,73.22
2023-01-29T01:39:51.717Z,73.41
2023-01-29T01:40:54.364Z,73.40
2023-01-29T01:41:57.483Z,73.33
2023-01-29T01:43:01.765Z,73.04
2023-01-29T01:44:05.704Z,73.21
2023-01-29T01:45:18.702Z,73.17
2023-01-29T01:46:22.349Z,73.01
2023-01-29T01:47:30.741Z,72.98
2023-01-29T01:48:33.392Z,72.89
2023-01-29T01:49:36.255Z,72.83
2023-01-29T01:50:46.576Z,72.83
2023-01-29T01:51:54.211Z,72.71
2023-01-29T01:53:02.235Z,72.78
2023-01-29T01:54:09.219Z,72.83
2023-01-29T01:55:15.928Z,72.90
2023-01-29T01:56:25.909Z,72.88
2023-01-29T01:57:31.822Z,73.10
2023-01-29T01:58:41.927Z,73.21
2023-01-29T01:59:51.888Z,73.00
2023-01-29T02:00:57.795Z,72.89
2023-01-29T02:02:00.731Z,72.75
2023-01-29T02:03:23.385Z,72.79
2023-01-29T02:04:46.573Z,72.96
2023-01-29T02:06:07.925Z,73.01
2023-01-29T02:07:33.259Z,72.74
2023-01-29T02:09:33.878Z,73.32
2023-01-29T02:11:02.799Z,73.22
2023-01-29T02:12:14.216Z,73.28
2023-01-29T02:13:18.962Z,73.25
2023-01-29T02:14:22.084Z,72.99
2023-01-29T02:15:24.777Z,73.05
2023-01-29T02:16:27.759Z,73.39
2023-01-29T02:17:30.481Z,73.32
2023-01-29T02:18:39.090Z,73.57
2023-01-29T02:20:03.330Z,73.22
2023-01-29T02:21:14.826Z,73.36
2023-01-29T02:22:37.114Z,73.38
2023-01-29T02:24:04.259Z,73.29
2023-01-29T02:25:29.795Z,73.13
2023-01-29T02:26:35.470Z,73.26
2023-01-29T02:28:00.829Z,73.39
2023-01-29T02:29:26.239Z,73.74
2023-01-29T02:30:41.371Z,73.73
2023-01-29T02:31:51.368Z,73.88
2023-01-29T02:33:23.289Z,73.76
2023-01-29T02:34:25.897Z,73.69
2023-01-29T02:36:07.668Z,73.66
2023-01-29T02:37:14.520Z,73.44
2023-01-29T02:38:40.562Z,73.51
2023-01-29T02:40:15.041Z,73.69
2023-01-29T02:41:29.071Z,73.75
2023-01-29T02:42:42.693Z,73.77
2023-01-29T02:44:14.524Z,73.73
2023-01-29T02:45:40.147Z,73.58
2023-01-29T02:46:53.188Z,73.26
2023-01-29T02:48:01.760Z,73.39
2023-01-29T02:49:16.199Z,73.50
2023-01-29T02:50:32.384Z,73.78
2023-01-29T02:52:02.543Z,73.60
2023-01-29T02:53:16.225Z,73.31
2023-01-29T02:54:26.138Z,73.32
2023-01-29T02:55:41.238Z,73.21
2023-01-29T02:56:54.651Z,73.14
2023-01-29T02:58:08.636Z,73.06
2023-01-29T02:59:23.968Z,73.06
2023-01-29T03:00:32.964Z,73.20
2023-01-29T03:01:59.058Z,73.56
2023-01-29T03:03:21.233Z,73.38
2023-01-29T03:04:32.073Z,73.34
2023-01-29T03:05:52.094Z,73.15
2023-01-29T03:07:11.661Z,72.94
2023-01-29T03:08:21.269Z,73.40
2023-01-29T03:09:34.139Z,73.51
2023-01-29T03:10:50.066Z,73.26
2023-01-29T03:12:03.613Z,73.21
2023-01-29T03:13:18.019Z,73.18
2023-01-29T03:14:54.399Z,73.19
2023-01-29T03:16:05.372Z,72.91
2023-01-29T03:17:09.790Z,73.00
2023-01-29T03:18:19.431Z,73.03
2023-01-29T03:19:38.126Z,73.05
2023-01-29T03:20:52.296Z,73.12
2023-01-29T03:22:00.491Z,73.10
2023-01-29T03:23:10.429Z,73.12
2023-01-29T03:24:34.394Z,73.20
2023-01-29T03:25:58.549Z,73.15
2023-01-29T03:27:23.860Z,72.88
2023-01-29T03:28:48.001Z,73.09
2023-01-29T03:30:11.414Z,73.16
2023-01-29T03:31:35.970Z,72.86
2023-01-29T03:32:39.751Z,73.15
2023-01-29T03:33:50.552Z,73.16
2023-01-29T03:34:59.594Z,73.17
2023-01-29T03:36:13.023Z,73.01
2023-01-29T03:37:21.853Z,73.16
2023-01-29T03:38:33.096Z,72.93
2023-01-29T03:39:37.060Z,72.61
2023-01-29T03:40:52.548Z,72.95
2023-01-29T03:42:17.255Z,72.72
2023-01-29T03:43:33.713Z,73.02
2023-01-29T03:45:05.698Z,72.68
2023-01-29T03:46:19.988Z,72.74
2023-01-29T03:47:45.940Z,72.84
2023-01-29T03:49:14.772Z,72.82
2023-01-29T03:50:26.744Z,72.73
2023-01-29T03:52:11.082Z,72.55
2023-01-29T03:53:38.101Z,72.84
2023-01-29T03:54:47.240Z,72.52
2023-01-29T03:56:10.280Z,72.79
2023-01-29T03:57:36.059Z,72.79
2023-01-29T03:59:13.007Z,72.76
2023-01-29T04:00:30.154Z,72.80
2023-01-29T04:02:18.837Z,72.83
2023-01-29T04:03:24.032Z,72.57
2023-01-29T04:04:33.902Z,72.64
2023-01-29T04:05:47.109Z,72.57
2023-01-29T04:06:54.251Z,72.86
2023-01-29T04:08:06.192Z,72.70
2023-01-29T04:09:15.858Z,72.97
2023-01-29T04:10:22.458Z,72.76
2023-01-29T04:11:26.881Z,72.78
2023-01-29T04:12:40.286Z,72.50
2023-01-29T04:13:44.212Z,72.45
2023-01-29T04:14:50.639Z,72.63
2023-01-29T04:16:00.311Z,72.53
2023-01-29T04:17:12.081Z,72.60
2023-01-29T04:18:14.940Z,72.85
2023-01-29T04:19:18.092Z,72.78
2023-01-29T04:20:21.874Z,72.92
2023-01-29T04:21:26.087Z,72.70
2023-01-29T04:22:36.587Z,72.43
2023-01-29T04:23:39.291Z,72.39
2023-01-29T04:24:43.490Z,72.61
2023-01-29T04:25:54.362Z,72.36
2023-01-29T04:27:10.253Z,72.18
2023-01-29T04:28:29.413Z,72.22
2023-01-29T04:30:05.788Z,72.27
2023-01-29T04:31:15.049Z,72.13
2023-01-29T04:32:29.305Z,72.21
2023-01-29T04:33:43.659Z,72.30
2023-01-29T04:35:02.894Z,72.63
2023-01-29T04:36:08.246Z,72.35
2023-01-29T04:37:21.037Z,72.04
2023-01-29T04:38:44.654Z,71.82
2023-01-29T04:39:57.662Z,71.83
2023-01-29T04:41:20.711Z,71.84
2023-01-29T04:43:02.290Z,71.77
2023-01-29T04:44:21.844Z,71.83
2023-01-29T04:45:35.904Z,71.51
2023-01-29T04:47:06.847Z,71.54
2023-01-29T04:48:42.905Z,71.71
2023-01-29T04:50:23.112Z,71.81
2023-01-29T04:51:44.100Z,71.92
2023-01-29T04:53:00.112Z,71.71
2023-01-29T04:54:26.036Z,71.55
2023-01-29T04:55:42.574Z,71.42
2023-01-29T04:57:18.298Z,70.98
2023-01-29T04:58:44.088Z,70.85
2023-01-29T04:59:52.218Z,71.04
2023-01-29T05:00:55.976Z,71.06
2023-01-29T05:02:02.111Z,70.98
2023-01-29T05:03:06.300Z,70.88
2023-01-29T05:04:14.524Z,71.03
2023-01-29T05:05:22.803Z,70.98
2023-01-29T05:06:26.513Z,70.69
2023-01-29T05:07:32.322Z,70.73
2023-01-29T05:08:36.016Z,70.70
2023-01-29T05:09:40.473Z,70.82
2023-01-29T05:10:43.663Z,70.99
2023-01-29T05:11:48.792Z,71.07
2023-01-29T05:12:59.801Z,71.03
2023-01-29T05:14:04.884Z,71.13
2023-01-29T05:15:15.577Z,70.81
2023-01-29T05:16:31.394Z,70.94
2023-01-29T05:17:34.121Z,71.22
2023-01-29T05:18:38.612Z,71.19
2023-01-29T05:19:41.384Z,70.99
2023-01-29T05:20:45.470Z,71.35
2023-01-29T05:21:50.843Z,71.57
2023-01-29T05:22:53.673Z,71.72
2023-01-29T05:24:20.782Z,71.64
2023-01-29T05:25:29.082Z,72.16
2023-01-29T05:26:51.165Z,71.83
2023-01-29T05:28:09.558Z,71.55
2023-01-29T05:29:13.363Z,71.52
2023-01-29T05:30:16.431Z,71.89
2023-01-29T05:31:19.408Z,71.75
2023-01-29T05:32:22.107Z,72.07
2023-01-29T05:33:28.559Z,71.69
2023-01-29T05:34:33.267Z,71.84
2023-01-29T05:35:37.917Z,71.91
2023-01-29T05:36:40.595Z,71.56
2023-01-29T05:37:45.516Z,71.39
2023-01-29T05:38:50.135Z,71.82
2023-01-29T05:39:52.754Z,71.61
2023-01-29T05:40:56.031Z,71.85
2023-01-29T05:42:00.686Z,72.16
2023-01-29T05:43:05.621Z,72.22
2023-01-29T05:44:08.299Z,71.78
2023-01-29T05:45:11.407Z,71.69
2023-01-29T05:46:14.097Z,71.83
2023-01-29T05:47:20.904Z,71.65
2023-01-29T05:48:24.013Z,71.52
2023-01-29T05:49:26.756Z,71.46
2023-01-29T05:50:29.531Z,71.35
2023-01-29T05:51:32.247Z,71.39
2023-01-29T05:52:34.869Z,71.42
2023-01-29T05:53:40.090Z,72.13
2023-01-29T05:54:42.757Z,71.12
2023-01-29T05:55:49.041Z,71.24
2023-01-29T05:56:51.776Z,71.46
2023-01-29T05:57:54.408Z,71.40
2023-01-29T05:58:57.987Z,71.41
2023-01-29T06:00:00.749Z,71.10
2023-01-29T06:01:16.691Z,71.17
2023-01-29T06:02:19.412Z,71.14
2023-01-29T06:03:22.071Z,70.91
2023-01-29T06:04:24.933Z,71.07
2023-01-29T06:05:27.579Z,71.02
2023-01-29T06:06:30.227Z,71.07
2023-01-29T06:07:33.030Z,71.11
2023-01-29T06:08:35.702Z,71.17
2023-01-29T06:09:38.330Z,71.39
2023-01-29T06:10:41.126Z,71.14
2023-01-29T06:11:43.821Z,71.08
2023-01-29T06:12:46.806Z,70.91
2023-01-29T06:13:49.956Z,70.86
2023-01-29T06:14:52.636Z,70.75
2023-01-29T06:15:55.372Z,70.87
2023-01-29T06:16:58.056Z,70.51
2023-01-29T06:18:02.391Z,70.57
2023-01-29T06:19:05.098Z,70.45
2023-01-29T06:20:08.467Z,70.55
2023-01-29T06:21:13.956Z,70.57
2023-01-29T06:22:16.616Z,70.73
2023-01-29T06:23:19.378Z,70.65
2023-01-29T06:24:22.034Z,70.85
2023-01-29T06:25:24.711Z,70.91
2023-01-29T06:26:27.380Z,71.02
2023-01-29T06:27:31.130Z,71.18
2023-01-29T06:28:34.014Z,70.96
2023-01-29T06:29:37.594Z,71.15
2023-01-29T06:30:40.257Z,71.11
2023-01-29T06:31:45.852Z,70.81
2023-01-29T06:32:48.613Z,70.83
2023-01-29T06:33:51.331Z,70.92
2023-01-29T06:34:54.338Z,70.87
2023-01-29T06:36:02.096Z,70.92
2023-01-29T06:37:07.294Z,70.68
2023-01-29T06:38:18.864Z,70.84
2023-01-29T06:39:21.516Z,70.98
2023-01-29T06:40:26.131Z,71.22
2023-01-29T06:41:29.700Z,70.95
2023-01-29T06:42:32.311Z,70.70
2023-01-29T06:43:34.996Z,70.95
2023-01-29T06:44:37.743Z,71.17
2023-01-29T06:45:42.400Z,71.12
2023-01-29T06:46:45.117Z,71.17
2023-01-29T06:47:47.754Z,70.90
2023-01-29T06:48:50.453Z,71.02
2023-01-29T06:49:53.302Z,71.17
2023-01-29T06:50:56.374Z,70.89
2023-01-29T06:51:59.004Z,70.89
2023-01-29T06:53:01.894Z,71.04
2023-01-29T06:54:04.760Z,70.78
2023-01-29T06:55:07.826Z,70.79
2023-01-29T06:56:10.660Z,70.40
2023-01-29T06:57:13.285Z,70.48
2023-01-29T06:58:15.939Z,70.73
2023-01-29T06:59:18.694Z,70.75
2023-01-29T07:00:21.700Z,70.85
2023-01-29T07:01:35.752Z,70.91
2023-01-29T07:02:39.315Z,71.19
2023-01-29T07:03:43.609Z,71.13
2023-01-29T07:04:46.271Z,70.91
2023-01-29T07:05:53.820Z,71.09
2023-01-29T07:06:56.536Z,71.11
2023-01-29T07:07:59.615Z,71.01
2023-01-29T07:09:02.243Z,70.88
2023-01-29T07:10:05.184Z,70.77
2023-01-29T07:11:08.341Z,70.80
2023-01-29T07:12:11.860Z,70.83
2023-01-29T07:13:14.517Z,70.87
2023-01-29T07:14:17.183Z,70.38
2023-01-29T07:15:21.480Z,70.62
2023-01-29T07:16:24.604Z,70.83
2023-01-29T07:17:27.292Z,70.65
2023-01-29T07:18:30.883Z,70.62
2023-01-29T07:19:34.361Z,70.98
2023-01-29T07:20:36.970Z,70.61
2023-01-29T07:21:39.615Z,70.49
2023-01-29T07:22:42.313Z,70.76
2023-01-29T07:23:44.971Z,70.75
2023-01-29T07:24:47.812Z,70.56
2023-01-29T07:25:53.626Z,70.67
2023-01-29T07:26:56.306Z,70.23
2023-01-29T07:28:02.208Z,69.85
2023-01-29T07:29:06.343Z,69.72
2023-01-29T07:30:09.667Z,69.82
2023-01-29T07:31:14.499Z,69.67
2023-01-29T07:32:17.278Z,70.14
2023-01-29T07:33:22.797Z,70.01
2023-01-29T07:34:25.499Z,69.75
2023-01-29T07:35:28.129Z,69.89
2023-01-29T07:36:31.096Z,69.65
2023-01-29T07:37:33.766Z,69.81
2023-01-29T07:38:36.466Z,69.90
2023-01-29T07:39:39.077Z,69.85
2023-01-29T07:40:41.731Z,69.93
2023-01-29T07:41:44.452Z,69.75
2023-01-29T07:42:47.859Z,69.78
2023-01-29T07:43:52.319Z,69.85
2023-01-29T07:44:57.457Z,69.42
2023-01-29T07:46:05.430Z,69.43
2023-01-29T07:47:08.149Z,69.47
2023-01-29T07:48:13.320Z,69.67
2023-01-29T07:49:16.559Z,69.62
2023-01-29T07:50:19.327Z,69.54
2023-01-29T07:51:22.507Z,69.51
2023-01-29T07:52:25.206Z,69.50
2023-01-29T07:53:29.151Z,69.56
2023-01-29T07:54:32.044Z,69.42
2023-01-29T07:55:34.991Z,69.35
2023-01-29T07:56:37.681Z,69.32
2023-01-29T07:57:40.395Z,69.30
2023-01-29T07:58:46.116Z,69.17
2023-01-29T07:59:48.771Z,69.26
2023-01-29T08:00:51.560Z,69.33
2023-01-29T08:01:54.323Z,69.23
2023-01-29T08:03:06.825Z,69.67
2023-01-29T08:04:11.211Z,69.47
2023-01-29T08:05:13.866Z,69.31
2023-01-29T08:06:16.619Z,69.41
2023-01-29T08:07:19.393Z,69.31
2023-01-29T08:08:22.028Z,69.15
2023-01-29T08:09:24.647Z,69.01
2023-01-29T08:10:27.731Z,68.90
2023-01-29T08:11:33.182Z,69.06
2023-01-29T08:12:35.876Z,68.86
2023-01-29T08:13:38.560Z,68.64
2023-01-29T08:14:41.552Z,68.91
2023-01-29T08:15:47.266Z,69.08
2023-01-29T08:16:53.051Z,68.53
2023-01-29T08:17:58.146Z,68.82
2023-01-29T08:19:03.263Z,68.39
2023-01-29T08:20:09.688Z,68.72
2023-01-29T08:21:13.764Z,68.84
2023-01-29T08:22:17.629Z,68.86
2023-01-29T08:23:20.243Z,68.64
2023-01-29T08:24:47.380Z,68.85
2023-01-29T08:25:57.045Z,68.78
2023-01-29T08:27:00.087Z,68.99
2023-01-29T08:28:12.169Z,69.14
2023-01-29T08:29:14.938Z,68.93
2023-01-29T08:30:18.591Z,69.24
2023-01-29T08:31:24.372Z,69.20
2023-01-29T08:32:27.061Z,69.32
2023-01-29T08:33:38.655Z,69.17
2023-01-29T08:34:46.720Z,69.06
2023-01-29T08:35:53.020Z,69.31
2023-01-29T08:36:57.665Z,68.89
2023-01-29T08:38:04.300Z,68.40
2023-01-29T08:39:09.235Z,68.38
2023-01-29T08:40:14.441Z,68.39
2023-01-29T08:41:17.132Z,68.44
2023-01-29T08:42:19.784Z,68.44
2023-01-29T08:43:22.406Z,67.93
2023-01-29T08:44:26.375Z,68.33
2023-01-29T08:45:31.841Z,68.36
2023-01-29T08:46:34.544Z,68.60
2023-01-29T08:47:37.174Z,68.53
2023-01-29T08:48:42.719Z,68.52
2023-01-29T08:49:45.336Z,68.42
2023-01-29T08:50:48.007Z,68.53
2023-01-29T08:51:52.456Z,68.21
2023-01-29T08:53:00.102Z,67.61
2023-01-29T08:54:05.006Z,67.84
2023-01-29T08:55:08.117Z,67.99
2023-01-29T08:56:11.935Z,67.70
2023-01-29T08:57:14.582Z,67.49
2023-01-29T08:58:17.226Z,67.69
2023-01-29T08:59:20.256Z,67.47
2023-01-29T09:00:25.878Z,67.63
2023-01-29T09:01:28.662Z,66.83
2023-01-29T09:02:31.468Z,66.39
2023-01-29T09:03:34.119Z,66.51
2023-01-29T09:04:38.488Z,66.45
2023-01-29T09:05:42.421Z,66.06
2023-01-29T09:06:45.052Z,66.64
2023-01-29T09:07:47.665Z,67.01
2023-01-29T09:08:53.972Z,67.05
2023-01-29T09:09:56.638Z,66.94
2023-01-29T09:11:05.326Z,66.83
2023-01-29T09:12:08.213Z,66.71
2023-01-29T09:13:11.222Z,66.64
2023-01-29T09:14:15.601Z,66.76
2023-01-29T09:15:18.674Z,66.82
2023-01-29T09:16:21.717Z,66.81
2023-01-29T09:17:24.475Z,67.21
2023-01-29T09:18:27.187Z,67.15
2023-01-29T09:19:29.885Z,66.86
2023-01-29T09:20:32.697Z,67.19
2023-01-29T09:21:35.337Z,67.01
2023-01-29T09:22:38.091Z,66.93
2023-01-29T09:23:43.751Z,67.51
2023-01-29T09:24:46.415Z,67.64
2023-01-29T09:25:49.090Z,67.39
2023-01-29T09:26:51.792Z,67.77
2023-01-29T09:27:55.382Z,67.10
2023-01-29T09:28:58.040Z,67.34
2023-01-29T09:30:01.460Z,66.97
2023-01-29T09:31:04.744Z,67.02
2023-01-29T09:32:07.945Z,66.98
2023-01-29T09:33:10.969Z,66.79
2023-01-29T09:34:13.707Z,66.86
2023-01-29T09:35:16.679Z,67.24
2023-01-29T09:36:19.518Z,66.81
2023-01-29T09:37:24.250Z,66.85
2023-01-29T09:38:26.920Z,66.02
2023-01-29T09:39:29.821Z,66.33
2023-01-29T09:40:52.790Z,66.00
2023-01-29T09:42:16.166Z,65.92
2023-01-29T09:43:28.475Z,66.14
2023-01-29T09:45:11.929Z,66.42
2023-01-29T09:46:20.615Z,66.70
2023-01-29T09:47:28.747Z,66.46
2023-01-29T09:48:36.709Z,66.30
2023-01-29T09:49:47.210Z,66.56
2023-01-29T09:50:56.532Z,66.97
2023-01-29T09:52:23.632Z,66.52
2023-01-29T09:53:41.954Z,66.58
2023-01-29T09:54:57.149Z,66.53
2023-01-29T09:56:07.230Z,66.22
2023-01-29T09:57:14.643Z,65.96
2023-01-29T09:58:37.367Z,65.87
2023-01-29T09:59:40.062Z,66.08
2023-01-29T10:01:15.837Z,66.19
2023-01-29T10:02:27.888Z,66.00
2023-01-29T10:04:08.631Z,66.33
2023-01-29T10:05:32.851Z,66.29
2023-01-29T10:06:55.055Z,66.22
2023-01-29T10:08:18.360Z,66.78
2023-01-29T10:09:26.712Z,66.61
2023-01-29T10:10:50.653Z,66.00
2023-01-29T10:12:02.300Z,66.09
2023-01-29T10:13:18.279Z,66.02
2023-01-29T10:14:39.014Z,66.05
2023-01-29T10:16:04.565Z,65.90
2023-01-29T10:17:26.344Z,66.03
2023-01-29T10:18:42.712Z,65.70
2023-01-29T10:20:12.793Z,65.08
2023-01-29T10:21:51.929Z,65.56
2023-01-29T10:23:28.341Z,64.96
2023-01-29T10:24:56.387Z,65.19
2023-01-29T10:25:59.251Z,65.11
2023-01-29T10:27:03.105Z,65.40
2023-01-29T10:28:24.369Z,64.94
2023-01-29T10:29:29.877Z,65.20
2023-01-29T10:30:49.225Z,65.23
2023-01-29T10:31:57.984Z,65.50
2023-01-29T10:33:06.645Z,65.21
2023-01-29T10:34:17.525Z,65.18
2023-01-29T10:35:44.716Z,64.70
2023-01-29T10:36:50.563Z,65.26
2023-01-29T10:37:55.323Z,65.49
2023-01-29T10:38:58.306Z,65.52
2023-01-29T10:40:01.601Z,65.36
2023-01-29T10:41:13.988Z,65.65
2023-01-29T10:42:35.492Z,64.66
2023-01-29T10:43:44.123Z,64.61
2023-01-29T10:45:19.727Z,64.30
2023-01-29T10:46:48.554Z,64.81
2023-01-29T10:48:01.434Z,65.00
2023-01-29T10:49:04.062Z,65.05
2023-01-29T10:50:26.653Z,65.31
2023-01-29T10:51:41.644Z,65.04
2023-01-29T10:53:22.739Z,64.15
2023-01-29T10:54:37.657Z,64.15
2023-01-29T10:56:23.500Z,63.62
2023-01-29T10:57:37.268Z,63.87
2023-01-29T10:59:11.737Z,64.19
2023-01-29T11:00:25.626Z,64.68
2023-01-29T11:01:28.459Z,64.26
2023-01-29T11:02:31.326Z,63.62
2023-01-29T11:03:35.338Z,63.81
2023-01-29T11:04:38.745Z,64.03
2023-01-29T11:06:15.333Z,63.78
2023-01-29T11:07:22.931Z,63.01
2023-01-29T11:08:35.798Z,63.53
2023-01-29T11:09:57.906Z,63.76
2023-01-29T11:11:18.759Z,63.24
2023-01-29T11:12:34.163Z,62.96
2023-01-29T11:14:03.916Z,62.95
2023-01-29T11:15:33.418Z,62.96
2023-01-29T11:16:48.017Z,62.79
2023-01-29T11:18:16.577Z,63.27
2023-01-29T11:19:19.518Z,62.79
2023-01-29T11:20:30.044Z,61.82
2023-01-29T11:21:32.677Z,61.96
2023-01-29T11:22:36.473Z,62.55
2023-01-29T11:23:41.617Z,62.15
2023-01-29T11:24:44.994Z,61.54
2023-01-29T11:25:54.179Z,60.22
2023-01-29T11:26:59.907Z,60.89
2023-01-29T11:28:04.217Z,60.65
2023-01-29T11:29:06.935Z,60.78
2023-01-29T11:30:19.162Z,60.13
2023-01-29T11:31:27.027Z,59.86
2023-01-29T11:32:33.721Z,59.84
2023-01-29T11:33:36.475Z,59.51
2023-01-29T11:35:01.129Z,60.11
2023-01-29T11:36:22.328Z,60.34
2023-01-29T11:37:27.027Z,60.56
2023-01-29T11:38:31.263Z,60.22
2023-01-29T11:39:34.216Z,60.65
2023-01-29T11:40:39.537Z,60.77
2023-01-29T11:42:02.122Z,59.87
2023-01-29T11:43:22.894Z,58.92
2023-01-29T11:44:40.621Z,59.32
2023-01-29T11:45:43.504Z,58.92
2023-01-29T11:46:46.482Z,60.03
2023-01-29T11:47:51.480Z,58.87
2023-01-29T11:48:59.374Z,59.32
2023-01-29T11:50:20.561Z,60.07
2023-01-29T11:51:32.257Z,59.70
2023-01-29T11:52:43.143Z,60.25
2023-01-29T11:53:53.977Z,59.77
2023-01-29T11:55:02.007Z,59.01
2023-01-29T11:56:07.825Z,59.98
2023-01-29T11:57:24.814Z,59.12
2023-01-29T11:58:35.892Z,59.04
2023-01-29T11:59:50.753Z,58.94
2023-01-29T12:00:56.668Z,58.80
2023-01-29T12:02:27.749Z,58.77
2023-01-29T12:03:41.724Z,59.68
2023-01-29T12:04:44.686Z,59.97
2023-01-29T12:06:07.947Z,60.20
2023-01-29T12:07:16.699Z,59.86
2023-01-29T12:08:22.176Z,59.64
2023-01-29T12:09:32.227Z,58.24
2023-01-29T12:10:43.126Z,58.57
2023-01-29T12:11:48.639Z,58.84
2023-01-29T12:12:51.329Z,58.07
2023-01-29T12:13:59.407Z,58.65
2023-01-29T12:15:26.099Z,59.32
2023-01-29T12:16:37.657Z,58.82
2023-01-29T12:17:41.732Z,59.02
2023-01-29T12:18:51.105Z,58.77
2023-01-29T12:20:04.987Z,59.04
2023-01-29T12:21:21.438Z,59.95
2023-01-29T12:22:42.749Z,59.50
2023-01-29T12:23:54.165Z,59.82
2023-01-29T12:25:03.079Z,58.86
2023-01-29T12:26:15.167Z,58.98
2023-01-29T12:27:19.124Z,58.11
2023-01-29T12:29:07.994Z,58.72
2023-01-29T12:30:18.315Z,58.00
2023-01-29T12:31:24.185Z,57.25
2023-01-29T12:32:44.784Z,57.80
2023-01-29T12:34:11.720Z,59.48
2023-01-29T12:35:25.350Z,59.65
2023-01-29T12:36:42.200Z,59.44
2023-01-29T12:38:11.743Z,58.23
2023-01-29T12:39:18.101Z,58.73
2023-01-29T12:40:22.521Z,59.26
2023-01-29T12:41:40.140Z,58.53
2023-01-29T12:42:54.892Z,57.74
2023-01-29T12:44:06.901Z,57.15
2023-01-29T12:45:13.925Z,56.85
2023-01-29T12:46:24.756Z,56.72
2023-01-29T12:47:44.215Z,56.83
2023-01-29T12:48:48.147Z,56.00
2023-01-29T12:49:56.880Z,55.99
2023-01-29T12:51:09.255Z,55.24
2023-01-29T12:52:22.135Z,56.41
2023-01-29T12:53:31.731Z,57.16
2023-01-29T12:54:56.103Z,55.87
2023-01-29T12:56:10.227Z,56.26
2023-01-29T12:57:25.364Z,56.26
2023-01-29T12:58:45.753Z,55.99
2023-01-29T13:00:16.642Z,56.43
2023-01-29T13:01:46.388Z,57.15
2023-01-29T13:02:53.571Z,57.30
2023-01-29T13:04:03.086Z,57.52
2023-01-29T13:05:14.174Z,57.26
2023-01-29T13:06:22.561Z,56.78
2023-01-29T13:07:32.584Z,57.23
2023-01-29T13:08:44.471Z,56.96
2023-01-29T13:09:56.377Z,56.65
2023-01-29T13:11:06.126Z,57.37
2023-01-29T13:12:17.582Z,57.51
2023-01-29T13:13:32.763Z,57.47
2023-01-29T13:14:57.833Z,57.59
2023-01-29T13:16:02.275Z,58.67
2023-01-29T13:17:19.822Z,57.56
2023-01-29T13:18:53.220Z,56.89
2023-01-29T13:20:00.721Z,57.16
2023-01-29T13:21:04.704Z,57.16
2023-01-29T13:22:34.166Z,56.94
2023-01-29T13:23:48.355Z,56.93
2023-01-29T13:25:03.562Z,58.59
2023-01-29T13:26:08.049Z,57.41
2023-01-29T13:27:26.291Z,56.69
2023-01-29T13:28:29.367Z,59.80
2023-01-29T13:29:33.048Z,59.01
2023-01-29T13:30:38.258Z,57.92
2023-01-29T13:31:42.359Z,57.43
2023-01-29T13:32:54.031Z,57.96
2023-01-29T13:34:08.959Z,56.70
2023-01-29T13:35:18.639Z,57.19
2023-01-29T13:36:28.522Z,57.18
2023-01-29T13:37:48.138Z,56.95
2023-01-29T13:39:00.774Z,56.43
2023-01-29T13:40:06.942Z,56.41
2023-01-29T13:41:10.249Z,55.94
2023-01-29T13:42:20.230Z,57.00
2023-01-29T13:43:24.672Z,57.52
2023-01-29T13:44:43.507Z,56.27
2023-01-29T13:45:47.174Z,56.67
2023-01-29T13:46:57.957Z,57.12
2023-01-29T13:48:24.816Z,56.43
2023-01-29T13:49:39.398Z,56.25
2023-01-29T13:50:44.329Z,56.54
2023-01-29T13:51:49.518Z,55.24
2023-01-29T13:53:02.649Z,56.20
2023-01-29T13:54:09.914Z,56.99
2023-01-29T13:55:18.391Z,56.89
2023-01-29T13:56:36.865Z,58.03
2023-01-29T13:57:45.321Z,57.66
2023-01-29T13:58:54.895Z,58.36
2023-01-29T13:59:59.016Z,57.72
2023-01-29T14:01:04.997Z,57.48
2023-01-29T14:02:25.904Z,57.56
2023-01-29T14:03:56.102Z,57.37
2023-01-29T14:05:30.814Z,57.40
2023-01-29T14:06:39.911Z,57.17
2023-01-29T14:07:52.324Z,57.45
2023-01-29T14:08:58.496Z,58.01
2023-01-29T14:10:15.740Z,58.02
2023-01-29T14:11:23.045Z,58.21
2023-01-29T14:12:25.791Z,58.10
2023-01-29T14:13:29.052Z,58.26
2023-01-29T14:14:50.130Z,58.35
2023-01-29T14:15:58.379Z,58.26
2023-01-29T14:17:03.928Z,58.01
2023-01-29T14:18:09.875Z,58.19
2023-01-29T14:19:22.417Z,58.29
2023-01-29T14:20:45.080Z,57.85
2023-01-29T14:21:52.524Z,57.86
2023-01-29T14:23:00.793Z,58.19
2023-01-29T14:24:24.086Z,57.95
2023-01-29T14:25:35.750Z,58.29
2023-01-29T14:26:44.828Z,58.61
2023-01-29T14:27:51.034Z,58.74
2023-01-29T14:29:16.489Z,58.55
2023-01-29T14:30:23.911Z,58.94
2023-01-29T14:31:51.682Z,59.46
2023-01-29T14:32:58.247Z,59.61
2023-01-29T14:34:06.732Z,60.00
2023-01-29T14:35:31.652Z,59.59
2023-01-29T14:36:48.262Z,59.68
2023-01-29T14:37:54.694Z,59.97
2023-01-29T14:39:01.323Z,60.32
2023-01-29T14:40:26.244Z,60.49
2023-01-29T14:41:35.142Z,59.86
2023-01-29T14:43:21.066Z,60.25
2023-01-29T14:44:45.522Z,59.89
2023-01-29T14:45:49.808Z,60.06
2023-01-29T14:46:54.381Z,60.25
2023-01-29T14:47:58.701Z,59.24
2023-01-29T14:49:01.701Z,59.60
2023-01-29T14:50:37.105Z,59.93
2023-01-29T14:51:44.418Z,59.78
2023-01-29T14:52:50.365Z,59.65
2023-01-29T14:54:03.608Z,59.68
2023-01-29T14:55:19.968Z,60.28
2023-01-29T14:56:42.916Z,59.75
2023-01-29T14:57:46.842Z,60.06
2023-01-29T14:58:56.178Z,59.17
2023-01-29T15:00:10.643Z,59.63
2023-01-29T15:01:38.243Z,60.10
2023-01-29T15:02:44.760Z,60.57
2023-01-29T15:03:56.578Z,60.43
2023-01-29T15:05:01.560Z,60.58